Time;durP1;ratioP1;P1;durP2;ratioP2;P2;SDS_P1;SDS_P2;PMS_P1;PMS_P2;Temp;Humidity;BMP_temperature;BMP_pressure;BME280_temperature;BME280_humidity;BME280_pressure;Samples;Min_cycle;Max_cycle;Signal;HPM_P1;HPM_P2
2022/12/19 00:00:19;;;;;;;38.03;20.60;;;;;;;-0.20;81.87;99029.03;4168465;28;20226;-89
2022/12/19 00:02:22;;;;;;;38.60;21.00;;;;;;;-0.16;81.71;99035.00;4153697;28;20757;-89
2022/12/19 00:04:26;;;;;;;40.38;21.50;;;;;;;-0.17;81.81;99041.81;4140164;28;20660;-90
2022/12/19 00:06:30;;;;;;;40.53;20.55;;;;;;;-0.14;81.56;99044.34;4157272;28;20200;-89
2022/12/19 00:08:33;;;;;;;36.95;20.45;;;;;;;-0.13;81.67;99051.19;4159915;28;20214;-89
2022/12/19 00:10:36;;;;;;;41.25;22.10;;;;;;;-0.10;82.11;99056.28;4159610;28;20233;-90
2022/12/19 00:12:39;;;;;;;35.42;20.25;;;;;;;-0.07;82.34;99048.56;4177283;28;20546;-89
2022/12/19 00:14:58;;;;;;;39.28;20.15;;;;;;;-0.07;81.97;99045.97;4154031;28;20215;-90
2022/12/19 00:17:03;;;;;;;38.10;20.58;;;;;;;-0.03;81.75;99050.22;4160427;28;20214;-89
2022/12/19 00:19:07;;;;;;;39.35;20.30;;;;;;;-0.02;82.01;99048.50;4162749;28;20717;-90
2022/12/19 00:21:12;;;;;;;40.38;20.75;;;;;;;0.00;81.46;99060.44;4137033;28;20207;-90
2022/12/19 00:23:15;;;;;;;37.72;20.98;;;;;;;-0.03;81.79;99073.28;4147426;28;20714;-90
2022/12/19 00:25:22;;;;;;;38.42;20.00;;;;;;;-0.02;81.78;99069.84;4160256;28;20662;-90
2022/12/19 00:27:25;;;;;;;42.25;20.38;;;;;;;-0.01;81.92;99082.63;4144967;28;20206;-90
2022/12/19 00:29:28;;;;;;;36.08;18.75;;;;;;;0.01;81.81;99085.19;4156843;28;20203;-90
2022/12/19 00:31:34;;;;;;;44.40;22.08;;;;;;;0.01;81.90;99087.75;4142239;28;20231;-90
2022/12/19 00:33:37;;;;;;;38.30;20.63;;;;;;;0.04;81.82;99077.47;4188543;28;20684;-90
2022/12/19 00:35:46;;;;;;;40.10;20.70;;;;;;;0.06;81.43;99070.59;4147938;28;20246;-90
2022/12/19 00:37:50;;;;;;;46.65;24.77;;;;;;;0.06;81.86;99062.91;4161638;28;20207;-90
2022/12/19 00:39:53;;;;;;;65.32;35.50;;;;;;;0.07;81.70;99069.72;4143255;28;20200;-90
2022/12/19 00:41:56;;;;;;;43.63;23.67;;;;;;;0.08;81.79;99069.72;4160286;28;20206;-90
2022/12/19 00:44:00;;;;;;;47.65;27.50;;;;;;;0.10;81.60;99074.81;4157411;28;20695;-90
2022/12/19 00:46:08;;;;;;;45.50;23.50;;;;;;;0.10;81.50;99080.78;4187026;28;20209;-90
2022/12/19 00:48:15;;;;;;;40.17;21.42;;;;;;;0.07;81.58;99075.69;4174158;28;20197;-90
2022/12/19 00:50:21;;;;;;;39.65;21.05;;;;;;;0.08;81.97;99071.44;4159650;28;20550;-90
2022/12/19 00:52:24;;;;;;;37.75;20.85;;;;;;;0.12;81.91;99065.38;4160301;28;20207;-90
2022/12/19 00:54:28;;;;;;;38.50;22.02;;;;;;;0.13;81.96;99060.25;4157930;28;20207;-90
2022/12/19 00:56:54;;;;;;;40.03;21.00;;;;;;;0.15;81.83;99049.97;4138673;28;20207;-91
2022/12/19 00:58:58;;;;;;;39.35;20.02;;;;;;;0.15;81.62;99048.28;4168979;28;20213;-91
2022/12/19 01:01:06;;;;;;;44.70;21.38;;;;;;;0.16;81.44;99044.00;4138593;28;20207;-90
2022/12/19 01:03:10;;;;;;;37.97;20.73;;;;;;;0.13;81.10;99034.59;4159306;28;20235;-90
2022/12/19 01:05:14;;;;;;;46.35;23.10;;;;;;;0.12;81.66;99020.13;4157339;28;20195;-91
2022/12/19 01:07:20;;;;;;;41.90;22.60;;;;;;;0.12;81.67;99016.69;4143382;28;20250;-91
2022/12/19 01:09:23;;;;;;;44.50;24.63;;;;;;;0.08;82.00;99015.88;4146542;28;20326;-91
2022/12/19 01:13:43;;;;;;;41.05;23.48;;;;;;;0.09;82.17;99026.97;4142224;28;20718;-91
2022/12/19 01:15:46;;;;;;;42.55;22.45;;;;;;;0.11;81.87;99025.25;4145881;28;20261;-91
2022/12/19 01:17:50;;;;;;;43.75;23.48;;;;;;;0.14;82.18;99025.22;4191418;28;20210;-90
2022/12/19 01:19:53;;;;;;;47.05;24.27;;;;;;;0.19;82.02;99020.88;4151203;28;20210;-90
2022/12/19 01:21:58;;;;;;;40.15;22.33;;;;;;;0.20;81.86;99018.28;4161952;28;20228;-91
2022/12/19 01:24:02;;;;;;;43.95;23.63;;;;;;;0.25;82.21;99013.94;4188562;28;20205;-91
2022/12/19 01:26:05;;;;;;;40.20;21.92;;;;;;;0.31;82.17;99002.78;4171719;28;20545;-91
2022/12/19 01:28:11;;;;;;;37.40;20.42;;;;;;;0.34;82.13;99008.69;4176304;28;20210;-90
2022/12/19 01:30:16;;;;;;;38.45;21.38;;;;;;;0.38;82.12;99012.09;4137497;28;20230;-91
2022/12/19 01:32:21;;;;;;;41.72;22.52;;;;;;;0.38;81.62;99009.53;4143680;28;20756;-90
2022/12/19 01:34:24;;;;;;;40.42;22.30;;;;;;;0.42;82.04;99016.28;4155933;28;20258;-91
2022/12/19 01:36:27;;;;;;;41.63;21.25;;;;;;;0.43;82.45;99006.00;4155812;28;20207;-91
2022/12/19 01:38:31;;;;;;;40.35;22.45;;;;;;;0.46;82.42;99009.38;4191027;28;20236;-90
2022/12/19 01:40:36;;;;;;;40.95;21.30;;;;;;;0.42;82.14;99000.91;4167061;28;20206;-90
2022/12/19 01:42:39;;;;;;;39.10;20.52;;;;;;;0.34;82.43;99002.72;4172188;28;20213;-90
2022/12/19 01:45:21;;;;;;;35.90;19.33;;;;;;;0.34;82.59;98992.47;4157455;28;20203;-90
2022/12/19 01:47:24;;;;;;;38.05;20.45;;;;;;;0.33;82.17;98994.19;4143057;28;20277;-89
2022/12/19 01:49:30;;;;;;;39.03;20.42;;;;;;;0.33;82.73;98998.47;4171108;28;20190;-90
2022/12/19 01:51:37;;;;;;;36.58;19.10;;;;;;;0.35;82.51;98984.75;4160108;28;20280;-91
2022/12/19 01:53:44;;;;;;;44.78;20.90;;;;;;;0.35;82.69;98994.19;4169905;28;20214;-91
2022/12/19 01:55:52;;;;;;;42.35;21.15;;;;;;;0.38;82.58;98994.97;4170316;28;20739;-90
2022/12/19 01:57:55;;;;;;;38.03;19.27;;;;;;;0.42;83.49;98990.63;4157932;28;20240;-90
2022/12/19 02:00:03;;;;;;;35.92;19.30;;;;;;;0.46;83.40;98978.59;4142571;28;20238;-90
2022/12/19 02:02:17;;;;;;;33.40;17.63;;;;;;;0.51;83.03;98981.94;4156970;28;20213;-90
2022/12/19 02:04:21;;;;;;;38.13;19.48;;;;;;;0.53;83.21;98980.19;4140812;28;20283;-90
2022/12/19 02:06:41;;;;;;;36.60;19.63;;;;;;;0.57;83.37;98984.44;4137941;28;20199;-89
2022/12/19 02:08:47;;;;;;;35.40;18.65;;;;;;;0.61;83.00;98967.25;4154641;28;20262;-90
2022/12/19 02:10:50;;;;;;;39.60;19.50;;;;;;;0.63;83.00;98976.63;4158991;28;20655;-90
2022/12/19 02:12:53;;;;;;;35.72;19.55;;;;;;;0.63;83.12;98971.50;4157301;28;20234;-91
2022/12/19 02:15:03;;;;;;;34.33;19.50;;;;;;;0.66;82.82;98968.91;4156124;28;20199;-91
2022/12/19 02:17:28;;;;;;;37.42;19.73;;;;;;;0.70;82.90;98965.38;4144512;28;20647;-91
2022/12/19 02:20:01;;;;;;;38.92;20.35;;;;;;;0.70;83.44;98957.69;4156345;28;20301;-91
2022/12/19 02:22:13;;;;;;;40.83;20.15;;;;;;;0.64;83.12;98959.50;4156044;28;20209;-91
2022/12/19 02:25:01;;;;;;;40.25;20.05;;;;;;;0.65;83.53;98941.53;4160774;28;20245;-90
2022/12/19 02:27:28;;;;;;;40.20;19.63;;;;;;;0.69;83.04;98945.75;4156024;28;20572;-90
2022/12/19 02:30:01;;;;;;;33.88;17.95;;;;;;;0.71;83.18;98944.00;4157991;28;20666;-90
2022/12/19 02:32:09;;;;;;;35.50;18.20;;;;;;;0.72;83.57;98958.53;4161048;28;20228;-91
2022/12/19 02:34:17;;;;;;;34.88;18.55;;;;;;;0.74;83.61;98946.50;4156430;28;20634;-90
2022/12/19 02:36:34;;;;;;;34.97;18.88;;;;;;;0.77;83.68;98946.47;4153822;28;20207;-90
2022/12/19 02:38:50;;;;;;;36.15;18.77;;;;;;;0.79;83.56;98947.28;4176177;28;20625;-91
2022/12/19 02:40:59;;;;;;;34.30;18.90;;;;;;;0.83;83.49;98938.66;4171555;28;20214;-90
2022/12/19 02:43:04;;;;;;;39.58;19.80;;;;;;;0.85;83.64;98939.47;4137697;28;20747;-91
2022/12/19 02:45:08;;;;;;;41.63;20.17;;;;;;;0.85;83.35;98936.91;4154649;28;20215;-90
2022/12/19 02:47:14;;;;;;;35.15;18.63;;;;;;;0.89;84.01;98941.13;4166782;28;20244;-90
2022/12/19 02:49:17;;;;;;;38.63;18.67;;;;;;;0.92;83.73;98938.50;4140123;28;20204;-90
2022/12/19 02:51:33;;;;;;;38.58;19.27;;;;;;;0.93;83.86;98937.63;4139974;28;20204;-90
2022/12/19 02:53:37;;;;;;;36.83;19.55;;;;;;;0.94;83.69;98944.47;4187866;28;20193;-90
2022/12/19 02:58:44;;;;;;;35.70;18.95;;;;;;;1.01;84.15;98951.19;4148090;28;20203;-90
2022/12/19 03:00:58;;;;;;;38.50;20.05;;;;;;;1.05;83.46;98957.94;4142465;28;20203;-91
2022/12/19 03:03:10;;;;;;;36.60;19.33;;;;;;;1.07;83.55;98969.06;4154380;28;20206;-90
2022/12/19 03:05:27;;;;;;;36.50;20.48;;;;;;;1.07;83.42;98966.50;4191401;28;20297;-90
2022/12/19 03:07:35;;;;;;;36.38;18.80;;;;;;;1.09;83.94;98968.13;4155239;28;20206;-90
2022/12/19 03:10:03;;;;;;;35.05;19.10;;;;;;;1.13;83.95;98966.38;4145235;28;20214;-90
2022/12/19 03:12:11;;;;;;;38.10;19.35;;;;;;;1.14;83.17;98962.94;4158586;28;20246;-91
2022/12/19 03:14:21;;;;;;;40.10;20.80;;;;;;;1.17;83.27;98956.00;4156400;28;20217;-91
2022/12/19 03:16:28;;;;;;;32.40;17.92;;;;;;;1.20;82.76;98949.97;4188503;28;20223;-90
2022/12/19 03:18:33;;;;;;;34.50;19.30;;;;;;;1.22;83.30;98945.66;4161789;28;20740;-90
2022/12/19 03:20:46;;;;;;;37.22;19.70;;;;;;;1.25;83.29;98946.47;4151334;28;20198;-91
2022/12/19 03:22:49;;;;;;;34.55;18.58;;;;;;;1.29;82.88;98934.41;4170311;28;20202;-90
2022/12/19 03:24:52;;;;;;;36.50;18.70;;;;;;;1.27;82.41;98947.28;4150577;28;20214;-90
2022/12/19 03:27:00;;;;;;;36.97;19.20;;;;;;;1.25;82.46;98935.31;4153552;28;20213;-90
2022/12/19 03:29:09;;;;;;;35.83;19.70;;;;;;;1.26;82.71;98943.00;4151398;28;20214;-90
2022/12/19 03:31:14;;;;;;;34.00;19.23;;;;;;;1.28;83.44;98948.09;4169705;28;20221;-90
2022/12/19 03:33:19;;;;;;;32.38;17.70;;;;;;;1.28;83.62;98959.25;4150480;28;20805;-90
2022/12/19 03:35:26;;;;;;;36.53;18.80;;;;;;;1.30;83.56;98966.94;4157724;28;20205;-91
2022/12/19 03:37:32;;;;;;;33.30;18.08;;;;;;;1.28;83.79;98958.38;4152681;28;20278;-90
2022/12/19 03:39:35;;;;;;;32.03;17.80;;;;;;;1.30;83.17;98970.34;4153912;28;20201;-91
2022/12/19 03:44:13;;;;;;;36.88;20.05;;;;;;;1.30;83.25;98980.59;4136463;28;20208;-90
2022/12/19 03:46:21;;;;;;;35.35;18.15;;;;;;;1.32;83.98;98972.88;4140909;28;20668;-91
2022/12/19 03:48:28;;;;;;;40.10;19.58;;;;;;;1.35;83.56;98971.09;4172781;28;20210;-90
2022/12/19 03:50:40;;;;;;;37.28;17.95;;;;;;;1.38;83.54;98975.34;4157988;28;20260;-90
2022/12/19 03:53:03;;;;;;;35.95;17.83;;;;;;;1.39;83.84;98969.34;4155410;28;20223;-90
2022/12/19 03:55:11;;;;;;;39.63;19.20;;;;;;;1.40;83.62;98977.84;4189619;28;20209;-90
2022/12/19 03:57:16;;;;;;;37.05;18.42;;;;;;;1.41;83.78;98978.69;4137253;28;20206;-90
2022/12/19 03:59:22;;;;;;;34.78;16.83;;;;;;;1.42;83.80;98968.38;4158826;28;20199;-90
2022/12/19 04:01:40;;;;;;;33.40;18.33;;;;;;;1.46;83.54;98967.47;4155668;28;20631;-90
2022/12/19 04:03:44;;;;;;;33.83;19.42;;;;;;;1.47;83.35;98968.28;4170044;28;20210;-90
2022/12/19 04:05:49;;;;;;;35.97;18.30;;;;;;;1.50;83.89;98966.53;4139319;28;20299;-90
2022/12/19 04:07:55;;;;;;;34.10;18.50;;;;;;;1.50;84.08;98969.09;4156999;28;20207;-90
2022/12/19 04:10:06;;;;;;;33.40;18.33;;;;;;;1.54;83.33;98964.75;4142165;28;20203;-90
2022/12/19 04:12:14;;;;;;;32.42;17.77;;;;;;;1.55;83.72;98969.03;4143520;28;20711;-90
2022/12/19 04:14:20;;;;;;;35.00;18.77;;;;;;;1.55;83.13;98959.59;4166935;28;20709;-91
2022/12/19 04:16:29;;;;;;;32.90;17.95;;;;;;;1.55;83.60;98959.59;4168730;28;20206;-91
2022/12/19 04:18:33;;;;;;;35.30;18.98;;;;;;;1.58;83.84;98964.66;4157643;28;20194;-91
2022/12/19 04:20:38;;;;;;;33.83;17.90;;;;;;;1.60;84.04;98968.03;4159591;28;20191;-91
2022/12/19 04:22:45;;;;;;;31.25;17.20;;;;;;;1.60;83.70;98975.75;4170969;28;20209;-91
2022/12/19 04:24:50;;;;;;;32.17;17.83;;;;;;;1.62;84.37;98971.41;4165615;28;20269;-90
2022/12/19 04:26:54;;;;;;;33.08;17.73;;;;;;;1.62;84.10;98971.41;4152830;28;20199;-91
2022/12/19 04:29:01;;;;;;;35.20;18.33;;;;;;;1.63;83.89;98975.69;4152817;28;20215;-90
2022/12/19 04:31:04;;;;;;;35.15;19.25;;;;;;;1.63;84.00;98967.97;4141706;28;20298;-91
2022/12/19 04:33:08;;;;;;;40.03;19.00;;;;;;;1.63;83.95;98967.16;4155413;28;20226;-91
2022/12/19 04:35:11;;;;;;;32.50;17.55;;;;;;;1.63;83.81;98983.41;4154935;28;20215;-91
2022/12/19 04:37:18;;;;;;;39.60;19.45;;;;;;;1.62;84.31;98976.56;4142929;28;20649;-91
2022/12/19 04:39:23;;;;;;;37.92;18.88;;;;;;;1.62;84.53;98975.72;4142584;28;20605;-91
2022/12/19 04:41:26;;;;;;;35.92;19.92;;;;;;;1.61;85.33;98971.44;4155909;28;20206;-90
2022/12/19 04:43:29;;;;;;;33.63;18.52;;;;;;;1.60;84.93;98973.19;4155749;28;20611;-90
2022/12/19 04:45:32;;;;;;;33.60;18.40;;;;;;;1.62;84.94;98973.97;4141197;28;20220;-90
2022/12/19 04:47:36;;;;;;;34.28;18.15;;;;;;;1.67;85.39;98974.75;4152837;28;20217;-90
2022/12/19 04:49:42;;;;;;;34.60;18.65;;;;;;;1.64;85.72;98969.69;4152324;28;20207;-90
2022/12/19 04:52:00;;;;;;;32.75;17.83;;;;;;;1.67;85.55;98974.75;4172042;28;20217;-90
2022/12/19 04:54:04;;;;;;;35.75;18.80;;;;;;;1.69;85.99;98972.16;4157418;28;20281;-90
2022/12/19 04:56:10;;;;;;;33.58;18.60;;;;;;;1.73;85.87;98971.22;4143500;28;20208;-90
2022/12/19 04:58:13;;;;;;;34.97;18.73;;;;;;;1.76;86.20;98973.72;4188114;28;20205;-90
2022/12/19 05:00:23;;;;;;;37.13;18.63;;;;;;;1.80;86.39;98975.38;4157709;28;20210;-90
2022/12/19 05:02:26;;;;;;;35.92;18.98;;;;;;;1.82;86.43;98974.47;4160147;28;20640;-90
2022/12/19 05:04:29;;;;;;;35.05;19.48;;;;;;;1.84;86.55;98982.97;4146008;28;20203;-90
2022/12/19 05:06:32;;;;;;;34.78;17.80;;;;;;;1.88;86.63;98979.50;4140006;28;20572;-91
2022/12/19 05:08:36;;;;;;;34.78;18.88;;;;;;;1.89;86.45;98986.31;4154058;28;20223;-89
2022/12/19 05:10:39;;;;;;;37.58;18.08;;;;;;;1.92;86.53;98993.94;4154821;28;20241;-90
2022/12/19 05:12:43;;;;;;;35.70;18.67;;;;;;;1.95;86.76;98981.03;4153804;28;20237;-90
2022/12/19 05:14:58;;;;;;;33.97;18.50;;;;;;;1.98;86.73;98988.69;4155503;28;20223;-90
2022/12/19 05:17:01;;;;;;;35.53;18.20;;;;;;;2.00;87.04;98992.94;4158866;28;20886;-90
2022/12/19 05:19:04;;;;;;;37.60;19.83;;;;;;;2.01;86.98;98976.59;4161487;28;20224;-90
2022/12/19 05:21:08;;;;;;;35.33;18.58;;;;;;;2.04;87.18;98979.13;4140616;28;20729;-90
2022/12/19 05:23:11;;;;;;;32.90;18.75;;;;;;;2.07;87.31;98973.06;4152496;28;20226;-90
2022/12/19 05:25:19;;;;;;;40.13;19.75;;;;;;;2.09;86.52;98967.03;4150928;28;20192;-90
2022/12/19 05:27:22;;;;;;;37.83;19.08;;;;;;;2.10;86.80;98970.44;4168784;28;20198;-90
2022/12/19 05:29:27;;;;;;;36.22;19.98;;;;;;;2.12;86.67;98955.81;4135474;28;20219;-90
2022/12/19 05:31:30;;;;;;;36.28;19.15;;;;;;;2.10;86.66;98949.84;4151930;28;20748;-91
2022/12/19 05:33:33;;;;;;;32.92;18.35;;;;;;;2.14;86.94;98948.94;4168376;28;20222;-90
2022/12/19 05:35:37;;;;;;;36.35;19.92;;;;;;;2.17;87.00;98948.88;4141722;28;20226;-89
2022/12/19 05:37:40;;;;;;;37.17;18.48;;;;;;;2.17;86.90;98954.84;4157524;28;20191;-89
2022/12/19 05:39:52;;;;;;;34.60;17.75;;;;;;;2.18;87.24;98963.41;4157575;28;20215;-89
2022/12/19 05:41:55;;;;;;;37.67;20.55;;;;;;;2.20;87.14;98959.91;4159994;28;20595;-89
2022/12/19 05:44:00;;;;;;;33.00;18.35;;;;;;;2.22;87.44;98968.44;4156776;28;20202;-89
2022/12/19 05:46:06;;;;;;;35.72;19.42;;;;;;;2.19;87.21;98965.09;4155281;28;20300;-90
2022/12/19 05:48:09;;;;;;;38.78;20.55;;;;;;;2.19;87.40;98965.09;4157450;28;20298;-90
2022/12/19 05:50:12;;;;;;;36.63;19.85;;;;;;;2.16;87.13;98958.28;4184687;28;20202;-90
2022/12/19 05:52:15;;;;;;;36.90;19.98;;;;;;;2.17;87.55;98959.16;4162144;28;20229;-89
2022/12/19 05:54:19;;;;;;;39.95;21.13;;;;;;;2.19;87.49;98959.97;4156001;28;20748;-91
2022/12/19 05:56:23;;;;;;;37.63;19.58;;;;;;;2.18;87.56;98953.09;4142247;28;20277;-90
2022/12/19 05:58:28;;;;;;;38.90;19.67;;;;;;;2.18;87.53;98945.38;4171995;28;20622;-90
2022/12/19 06:00:31;;;;;;;34.35;18.95;;;;;;;2.21;87.62;98942.75;4170804;28;20206;-89
2022/12/19 06:02:35;;;;;;;38.38;20.33;;;;;;;2.22;87.84;98935.00;4172195;28;20689;-90
2022/12/19 06:05:06;;;;;;;37.45;19.23;;;;;;;2.24;87.62;98933.25;4153593;28;20210;-89
2022/12/19 06:07:09;;;;;;;34.72;19.45;;;;;;;2.27;87.55;98933.19;4160302;28;20663;-89
2022/12/19 06:09:12;;;;;;;35.35;18.92;;;;;;;2.29;87.57;98941.72;4172505;28;20677;-89
2022/12/19 06:11:16;;;;;;;34.20;18.75;;;;;;;2.29;88.04;98928.84;4170090;28;20205;-90
2022/12/19 06:13:19;;;;;;;37.40;21.23;;;;;;;2.30;87.87;98929.69;4184682;28;20205;-91
2022/12/19 06:15:27;;;;;;;34.75;19.50;;;;;;;2.29;87.96;98931.41;4155595;28;20222;-90
2022/12/19 06:17:31;;;;;;;39.63;20.17;;;;;;;2.31;88.08;98921.09;4156573;28;20227;-91
2022/12/19 06:20:07;;;;;;;36.90;19.95;;;;;;;2.33;87.82;98918.47;4138620;28;20723;-90
2022/12/19 06:22:22;;;;;;;35.78;19.20;;;;;;;2.33;87.95;98914.19;4153989;28;20273;-90
2022/12/19 06:24:26;;;;;;;32.95;19.02;;;;;;;2.33;88.43;98917.63;4169529;28;20209;-90
2022/12/19 06:26:29;;;;;;;40.20;21.02;;;;;;;2.35;88.03;98923.56;4155758;28;20199;-90
2022/12/19 06:28:33;;;;;;;37.88;19.70;;;;;;;2.35;88.01;98918.41;4138011;28;20300;-90
2022/12/19 06:30:36;;;;;;;32.22;17.90;;;;;;;2.38;88.27;98926.06;4154861;28;20674;-90
2022/12/19 06:32:40;;;;;;;36.33;20.02;;;;;;;2.41;88.20;98924.25;4154943;28;20209;-90
2022/12/19 06:34:43;;;;;;;36.25;20.55;;;;;;;2.44;88.72;98918.22;4170805;28;20773;-90
2022/12/19 06:37:07;;;;;;;36.28;19.17;;;;;;;2.45;88.04;98920.75;4156186;28;20601;-90
2022/12/19 06:39:13;;;;;;;36.00;19.55;;;;;;;2.48;88.22;98912.09;4170528;28;20252;-90
2022/12/19 06:43:38;;;;;;;37.67;20.15;;;;;;;2.49;88.47;98913.78;4151785;28;20837;-90
2022/12/19 06:45:42;;;;;;;34.95;19.45;;;;;;;2.50;88.05;98921.47;4154688;28;20215;-88
2022/12/19 06:47:48;;;;;;;34.65;19.48;;;;;;;2.52;88.06;98919.69;4140878;28;20614;-88
2022/12/19 06:49:51;;;;;;;39.15;20.73;;;;;;;2.51;88.31;98915.47;4158505;28;20207;-88
2022/12/19 06:51:54;;;;;;;33.42;19.42;;;;;;;2.56;88.64;98917.94;4155265;28;20203;-88
2022/12/19 06:53:59;;;;;;;32.90;18.05;;;;;;;2.58;88.61;98922.13;4173228;28;20213;-90
2022/12/19 06:56:03;;;;;;;37.25;19.40;;;;;;;2.58;87.89;98918.72;4152811;28;20694;-90
2022/12/19 06:58:06;;;;;;;38.67;20.70;;;;;;;2.57;88.07;98910.16;4148789;28;20289;-91
2022/12/19 07:00:11;;;;;;;35.75;19.30;;;;;;;2.61;88.28;98919.47;4152815;28;20302;-90
2022/12/19 07:02:23;;;;;;;37.13;20.63;;;;;;;2.64;88.51;98913.44;4153402;28;20215;-90
2022/12/19 07:04:29;;;;;;;44.05;22.52;;;;;;;2.65;88.27;98917.72;4137631;28;20226;-90
2022/12/19 07:06:32;;;;;;;34.25;19.55;;;;;;;2.66;88.38;98916.81;4140791;28;20295;-90
2022/12/19 07:08:35;;;;;;;39.10;19.42;;;;;;;2.69;88.71;98909.00;4143837;28;20277;-88
2022/12/19 07:10:40;;;;;;;38.85;21.48;;;;;;;2.70;88.47;98911.53;4153982;28;20202;-89
2022/12/19 07:12:43;;;;;;;37.35;20.58;;;;;;;2.72;88.71;98914.09;4140507;28;20239;-87
2022/12/19 07:14:47;;;;;;;37.08;21.45;;;;;;;2.72;88.63;98914.94;4133581;28;20242;-92
2022/12/19 07:16:58;;;;;;;35.55;19.67;;;;;;;2.73;88.06;98908.91;4187989;28;20242;-89
2022/12/19 07:19:01;;;;;;;37.30;20.15;;;;;;;2.76;88.33;98916.53;4152599;28;20785;-90
2022/12/19 07:21:05;;;;;;;35.83;19.75;;;;;;;2.78;87.73;98917.34;4152824;28;20215;-90
2022/12/19 07:23:09;;;;;;;36.03;19.50;;;;;;;2.79;88.29;98921.63;4156543;28;21630;-91
2022/12/19 07:25:16;;;;;;;36.53;20.15;;;;;;;2.81;87.73;98927.56;4184463;28;20227;-91
2022/12/19 07:27:21;;;;;;;35.75;20.00;;;;;;;2.83;88.49;98923.25;4165223;28;20215;-91
2022/12/19 07:29:25;;;;;;;36.40;19.08;;;;;;;2.84;88.25;98918.06;4155170;28;20206;-90
2022/12/19 07:31:28;;;;;;;38.95;20.83;;;;;;;2.86;88.27;98925.75;4163565;28;20213;-90
2022/12/19 07:33:32;;;;;;;37.10;19.55;;;;;;;2.90;88.43;98935.06;4157974;28;20244;-90
2022/12/19 07:35:35;;;;;;;38.17;20.77;;;;;;;2.90;88.47;98929.91;4141620;28;20235;-87
2022/12/19 07:37:38;;;;;;;37.97;20.55;;;;;;;2.92;88.51;98934.16;4180582;28;20259;-87
2022/12/19 07:39:41;;;;;;;38.10;19.40;;;;;;;2.95;88.40;98930.69;4183884;28;20307;-88
2022/12/19 07:41:44;;;;;;;37.60;20.35;;;;;;;3.00;88.34;98937.38;4150631;28;20217;-87
2022/12/19 07:43:49;;;;;;;34.83;20.48;;;;;;;3.02;88.05;98925.34;4145244;28;20213;-87
2022/12/19 07:45:54;;;;;;;37.42;20.50;;;;;;;3.08;88.03;98932.03;4148561;28;20308;-87
2022/12/19 07:48:00;;;;;;;40.78;21.95;;;;;;;3.10;88.62;98933.69;4151534;28;20219;-88
2022/12/19 07:50:03;;;;;;;38.22;21.60;;;;;;;3.14;88.09;98937.03;4158685;28;20210;-86
2022/12/19 07:52:07;;;;;;;40.00;22.70;;;;;;;3.16;88.15;98927.53;4147128;28;20222;-86
2022/12/19 07:54:10;;;;;;;44.35;24.42;;;;;;;3.18;88.44;98923.19;4149789;28;20706;-86
2022/12/19 07:56:13;;;;;;;45.60;25.13;;;;;;;3.21;87.87;98929.09;4153757;28;20262;-87
2022/12/19 07:58:18;;;;;;;35.75;19.75;;;;;;;3.25;88.01;98929.88;4153310;28;20966;-86
2022/12/19 08:00:23;;;;;;;37.97;21.67;;;;;;;3.27;87.84;98927.22;4173777;28;20210;-87
2022/12/19 08:02:26;;;;;;;39.22;21.42;;;;;;;3.29;87.61;98929.75;4151403;28;20211;-85
2022/12/19 08:04:29;;;;;;;37.38;22.67;;;;;;;3.30;87.14;98929.69;4150790;28;20223;-85
2022/12/19 08:06:32;;;;;;;39.20;21.15;;;;;;;3.33;87.82;98934.78;4134806;28;20207;-85
2022/12/19 08:08:42;;;;;;;37.13;20.25;;;;;;;3.34;86.86;98933.06;4158238;28;20230;-85
2022/12/19 08:10:46;;;;;;;38.42;20.27;;;;;;;3.32;87.50;98932.25;4136918;28;20805;-85
2022/12/19 08:12:50;;;;;;;37.92;19.90;;;;;;;3.34;87.57;98926.16;4132196;28;20226;-85
2022/12/19 08:14:53;;;;;;;39.15;21.35;;;;;;;3.32;87.03;98930.53;4155207;28;20226;-85
2022/12/19 08:17:00;;;;;;;35.10;19.50;;;;;;;3.35;87.07;98934.75;4155081;28;20568;-85
2022/12/19 08:19:23;;;;;;;38.72;21.65;;;;;;;3.36;87.13;98939.84;4165311;28;20694;-85
2022/12/19 08:21:30;;;;;;;38.38;20.90;;;;;;;3.39;87.41;98933.78;4166074;28;20228;-85
2022/12/19 08:23:33;;;;;;;38.50;21.00;;;;;;;3.41;87.07;98943.19;4160854;28;20214;-85
2022/12/19 08:25:39;;;;;;;38.95;21.73;;;;;;;3.46;86.86;98933.56;4155104;28;20224;-85
2022/12/19 08:27:42;;;;;;;36.70;20.83;;;;;;;3.51;86.95;98965.22;4161594;28;20210;-85
2022/12/19 08:29:46;;;;;;;35.25;18.42;;;;;;;3.54;87.71;98947.09;4145891;28;20261;-85
2022/12/19 08:31:49;;;;;;;37.45;20.83;;;;;;;3.57;87.99;98952.16;4152621;28;20207;-85
2022/12/19 08:33:55;;;;;;;39.70;20.58;;;;;;;3.60;87.59;98948.69;4142064;28;20242;-85
2022/12/19 08:35:58;;;;;;;36.05;19.40;;;;;;;3.64;86.94;98952.84;4187577;28;20712;-85
2022/12/19 08:38:01;;;;;;;35.22;20.95;;;;;;;3.68;87.01;98957.03;4167079;28;20244;-85
2022/12/19 08:40:05;;;;;;;38.60;20.23;;;;;;;3.72;86.99;98958.66;4131919;28;20312;-85
2022/12/19 08:42:08;;;;;;;32.13;18.58;;;;;;;3.76;87.94;98958.53;4154109;28;20907;-85
2022/12/19 08:44:12;;;;;;;34.13;19.38;;;;;;;3.80;87.87;98958.41;4156822;28;20215;-85
2022/12/19 08:46:16;;;;;;;41.60;21.48;;;;;;;3.85;87.03;98958.28;4129176;28;20306;-85
2022/12/19 08:48:19;;;;;;;33.90;19.40;;;;;;;3.87;86.04;98959.06;4139165;28;20219;-85
2022/12/19 08:50:24;;;;;;;38.45;20.27;;;;;;;3.93;86.57;98958.91;4129682;28;20204;-85
2022/12/19 08:52:27;;;;;;;38.35;22.20;;;;;;;3.95;87.11;98967.44;4151536;28;20293;-85
2022/12/19 08:54:30;;;;;;;36.83;20.02;;;;;;;4.00;85.91;98965.56;4157231;28;20206;-85
2022/12/19 08:56:34;;;;;;;39.85;22.23;;;;;;;4.03;86.87;98970.63;4133967;28;20227;-85
2022/12/19 08:58:37;;;;;;;35.55;20.77;;;;;;;4.05;86.84;98964.53;4172795;28;20206;-85
2022/12/19 09:00:40;;;;;;;36.28;19.85;;;;;;;4.08;86.31;98963.63;4159628;28;20200;-85
2022/12/19 09:02:43;;;;;;;36.72;19.73;;;;;;;4.12;86.42;98949.72;4141698;28;20213;-85
2022/12/19 09:04:47;;;;;;;35.08;19.98;;;;;;;4.16;86.33;98946.16;4158261;28;20210;-85
2022/12/19 09:07:12;;;;;;;41.45;23.95;;;;;;;4.20;86.17;98941.72;4138038;28;20231;-85
2022/12/19 09:09:17;;;;;;;42.03;23.17;;;;;;;4.24;86.56;98940.75;4153310;28;20658;-85
2022/12/19 09:11:21;;;;;;;36.65;20.98;;;;;;;4.29;86.39;98927.69;4155537;28;20244;-85
2022/12/19 09:13:24;;;;;;;37.47;22.83;;;;;;;4.31;86.71;98936.22;4148925;28;20203;-85
2022/12/19 09:15:27;;;;;;;37.70;22.20;;;;;;;4.33;86.50;98931.84;4154693;28;20207;-85
2022/12/19 09:17:30;;;;;;;44.80;26.38;;;;;;;4.36;86.20;98942.94;4153488;28;20245;-85
2022/12/19 09:19:33;;;;;;;38.30;21.17;;;;;;;4.41;86.64;98940.22;4149823;28;20208;-86
2022/12/19 09:21:37;;;;;;;37.53;21.38;;;;;;;4.43;85.78;98941.84;4160330;28;20206;-85
2022/12/19 09:23:42;;;;;;;42.85;22.70;;;;;;;4.46;86.32;98936.59;4146754;28;20217;-85
2022/12/19 09:25:47;;;;;;;38.30;21.83;;;;;;;4.50;86.32;98938.19;4188936;28;20206;-87
2022/12/19 09:27:50;;;;;;;37.25;22.05;;;;;;;4.55;85.93;98938.91;4155708;28;20200;-89
2022/12/19 09:30:14;;;;;;;34.20;20.23;;;;;;;4.59;85.20;98937.91;4155006;28;20623;-88
2022/12/19 09:32:18;;;;;;;34.78;20.42;;;;;;;4.62;86.02;98937.81;4153460;28;22075;-87
2022/12/19 09:34:21;;;;;;;35.15;21.70;;;;;;;4.66;85.09;98934.25;4155586;28;20198;-88
2022/12/19 09:36:25;;;;;;;38.35;22.27;;;;;;;4.68;85.38;98936.78;4188425;28;20248;-86
2022/12/19 09:38:30;;;;;;;42.25;25.95;;;;;;;4.67;85.12;98930.75;4145013;28;20238;-86
2022/12/19 09:40:52;;;;;;;42.67;24.70;;;;;;;4.68;85.68;98932.47;4148226;28;20645;-86
2022/12/19 09:43:02;;;;;;;40.25;24.40;;;;;;;4.69;84.94;98929.84;4153588;28;20265;-86
2022/12/19 09:45:36;;;;;;;36.83;22.80;;;;;;;4.71;85.66;98927.19;4147002;28;20794;-85
2022/12/19 09:47:43;;;;;;;41.55;24.17;;;;;;;4.72;84.52;98928.88;4147621;28;20216;-86
2022/12/19 09:49:47;;;;;;;40.80;23.02;;;;;;;4.74;85.08;98925.34;4137104;28;20353;-86
2022/12/19 09:51:59;;;;;;;36.78;23.05;;;;;;;4.80;85.37;98926.91;4154673;28;20289;-86
2022/12/19 09:54:06;;;;;;;33.38;21.30;;;;;;;4.85;85.47;98925.84;4159321;28;20203;-86
2022/12/19 09:56:14;;;;;;;37.88;22.45;;;;;;;4.91;84.83;98924.81;4150578;28;20296;-86
2022/12/19 09:58:23;;;;;;;37.50;23.80;;;;;;;4.96;85.15;98928.09;4165937;28;20203;-85